Time;durP1;ratioP1;P1;durP2;ratioP2;P2;SDS_P1;SDS_P2;PMS_P1;PMS_P2;Temp;Humidity;BMP_temperature;BMP_pressure;BME280_temperature;BME280_humidity;BME280_pressure;Samples;Min_cycle;Max_cycle;Signal;HPM_P1;HPM_P2
2023/05/02 00:02:10;;;;;;;16.70;15.90;;;11.70;99.90;;;;;;4936705;28;20474;-80
2023/05/02 00:04:38;;;;;;;16.20;15.60;;;11.70;1.00;;;;;;4931902;28;20462;-79
2023/05/02 00:07:06;;;;;;;17.57;16.53;;;11.70;1.00;;;;;;4933686;28;20475;-79
2023/05/02 00:09:35;;;;;;;16.80;16.10;;;11.70;1.00;;;;;;4931816;28;20551;-79
2023/05/02 00:12:03;;;;;;;16.73;16.00;;;11.70;1.00;;;;;;4929550;28;20806;-79
2023/05/02 00:14:31;;;;;;;18.17;17.20;;;11.60;38.10;;;;;;4930488;28;20531;-78
2023/05/02 00:16:59;;;;;;;17.03;16.13;;;11.60;99.90;;;;;;4943903;28;21096;-78
2023/05/02 00:19:29;;;;;;;16.80;15.90;;;11.60;99.90;;;;;;4935227;28;20479;-79
2023/05/02 00:21:57;;;;;;;16.63;15.90;;;11.60;99.90;;;;;;4940561;28;20541;-79
2023/05/02 00:24:25;;;;;;;17.20;16.40;;;11.50;99.90;;;;;;4938883;28;20534;-78
2023/05/02 00:26:53;;;;;;;16.73;16.03;;;11.50;99.90;;;;;;4929263;28;20460;-77
2023/05/02 00:29:22;;;;;;;17.50;16.70;;;11.50;99.90;;;;;;4937519;28;20481;-78
2023/05/02 00:31:50;;;;;;;17.20;16.50;;;11.50;99.90;;;;;;4937251;28;20460;-79
2023/05/02 00:34:18;;;;;;;16.90;16.20;;;11.50;1.00;;;;;;4940619;28;20456;-79
2023/05/02 00:36:48;;;;;;;16.83;16.03;;;11.40;1.00;;;;;;4937611;28;21486;-79
2023/05/02 00:39:16;;;;;;;16.80;16.00;;;11.40;1.00;;;;;;4933064;28;20520;-78
2023/05/02 00:41:44;;;;;;;16.33;15.63;;;11.40;1.00;;;;;;4936200;28;20454;-78
2023/05/02 00:44:12;;;;;;;17.03;16.20;;;11.40;99.90;;;;;;4933751;28;20489;-78
2023/05/02 00:46:41;;;;;;;16.80;16.10;;;11.40;99.90;;;;;;4935511;28;21059;-79
2023/05/02 00:49:09;;;;;;;16.17;15.57;;;11.30;1.00;;;;;;4937090;29;20868;-80
2023/05/02 00:51:38;;;;;;;16.53;15.83;;;11.30;1.00;;;;;;4935334;28;20464;-79
2023/05/02 00:54:07;;;;;;;16.40;15.80;;;11.20;99.90;;;;;;4934420;28;21370;-78
2023/05/02 00:56:35;;;;;;;16.60;15.90;;;11.20;99.90;;;;;;4935242;28;20456;-79
2023/05/02 00:59:04;;;;;;;17.17;16.47;;;11.20;99.90;;;;;;4932128;28;20512;-81
2023/05/02 01:01:45;;;;;;;17.07;16.30;;;11.20;99.90;;;;;;4933287;28;20451;-79
2023/05/02 01:04:30;;;;;;;17.40;16.60;;;11.20;99.90;;;;;;4938551;28;20452;-78
2023/05/02 01:07:09;;;;;;;16.87;15.97;;;11.20;1.00;;;;;;4932004;28;20472;-79
2023/05/02 01:09:53;;;;;;;16.10;15.40;;;11.20;99.90;;;;;;4933425;28;20536;-79
2023/05/02 01:12:28;;;;;;;17.23;16.43;;;11.10;1.00;;;;;;4931553;28;21155;-78
2023/05/02 01:14:58;;;;;;;17.87;16.97;;;11.10;99.90;;;;;;4948892;28;20469;-80
2023/05/02 01:17:31;;;;;;;17.17;16.27;;;11.10;99.90;;;;;;4934617;28;20493;-79
2023/05/02 01:20:02;;;;;;;17.40;16.63;;;11.10;99.90;;;;;;4931298;28;20473;-78
2023/05/02 01:22:31;;;;;;;18.53;17.70;;;11.20;36.90;;;;;;4936004;28;20465;-80
2023/05/02 01:25:13;;;;;;;17.70;16.70;;;11.10;99.90;;;;;;4932229;28;20464;-79
2023/05/02 01:27:51;;;;;;;17.30;16.60;;;11.20;99.90;;;;;;4939108;28;20510;-78
2023/05/02 01:30:22;;;;;;;17.07;16.33;;;11.20;1.00;;;;;;4934407;28;20483;-79
2023/05/02 01:32:52;;;;;;;17.10;16.30;;;11.20;99.90;;;;;;4931453;28;20463;-79
2023/05/02 01:35:22;;;;;;;17.10;16.30;;;11.20;99.90;;;;;;4939330;28;20550;-79
2023/05/02 01:37:53;;;;;;;17.13;16.43;;;11.20;1.00;;;;;;4933859;28;20536;-79
2023/05/02 01:40:23;;;;;;;17.73;16.83;;;11.20;99.90;;;;;;4935741;28;20485;-80
2023/05/02 01:42:53;;;;;;;17.20;16.47;;;11.20;1.00;;;;;;4932934;28;20462;-78
2023/05/02 01:45:25;;;;;;;17.37;16.67;;;11.20;1.00;;;;;;4930257;28;20544;-78
2023/05/02 01:47:54;;;;;;;17.13;16.33;;;11.20;99.90;;;;;;4932178;28;20473;-78
2023/05/02 01:50:25;;;;;;;16.97;16.27;;;11.30;1.00;;;;;;4932711;28;20517;-79
2023/05/02 01:52:55;;;;;;;16.40;15.80;;;11.20;99.90;;;;;;4930367;28;20481;-78
2023/05/02 01:55:25;;;;;;;16.90;16.20;;;11.20;1.00;;;;;;4931695;28;20467;-78
2023/05/02 01:57:56;;;;;;;19.10;17.30;;;11.20;99.90;;;;;;4931478;28;20476;-78
2023/05/02 02:00:26;;;;;;;17.00;16.30;;;11.20;99.90;;;;;;4936375;28;20541;-80
2023/05/02 02:02:56;;;;;;;16.97;16.27;;;11.20;99.90;;;;;;4931776;28;20464;-79
2023/05/02 02:05:26;;;;;;;16.47;15.83;;;11.20;1.00;;;;;;4932378;28;20480;-80
2023/05/02 02:07:55;;;;;;;18.27;17.20;;;11.20;97.30;;;;;;4934198;28;20457;-80
2023/05/02 02:10:26;;;;;;;17.43;16.73;;;11.10;1.00;;;;;;4932575;28;20480;-78
2023/05/02 02:13:00;;;;;;;17.50;16.70;;;11.20;1.00;;;;;;4931131;28;20457;-79
2023/05/02 02:15:34;;;;;;;17.07;16.37;;;11.20;1.00;;;;;;4931642;28;20469;-79
2023/05/02 02:18:09;;;;;;;17.03;16.20;;;11.20;99.90;;;;;;4933654;28;20488;-79
2023/05/02 02:20:39;;;;;;;16.70;15.90;;;11.00;99.90;;;;;;4934760;28;20489;-80
2023/05/02 02:23:09;;;;;;;16.73;16.13;;;11.00;99.90;;;;;;4937357;28;20465;-79
2023/05/02 02:25:38;;;;;;;17.50;16.70;;;11.00;1.00;;;;;;4933037;28;20457;-78
2023/05/02 02:28:07;;;;;;;17.13;16.40;;;11.00;99.90;;;;;;4939679;28;20469;-78
2023/05/02 02:30:37;;;;;;;16.87;16.20;;;10.90;99.90;;;;;;4934744;28;20508;-78
2023/05/02 02:33:05;;;;;;;17.00;16.30;;;10.90;99.90;;;;;;4937191;28;20511;-78
2023/05/02 02:35:40;;;;;;;17.40;16.33;;;10.90;99.90;;;;;;4938656;28;20499;-79
2023/05/02 02:38:15;;;;;;;17.10;16.30;;;10.80;1.00;;;;;;4937320;28;20479;-79
2023/05/02 02:40:47;;;;;;;17.37;16.57;;;10.90;99.90;;;;;;4937886;28;20491;-78
2023/05/02 02:43:23;;;;;;;16.60;15.90;;;10.90;99.90;;;;;;4935690;28;20539;-77
2023/05/02 02:46:02;;;;;;;17.53;16.53;;;11.00;1.00;;;;;;4936108;28;20515;-78
2023/05/02 02:48:35;;;;;;;17.03;16.33;;;10.90;99.90;;;;;;4935540;28;20581;-79
2023/05/02 02:51:12;;;;;;;16.73;16.03;;;10.90;99.90;;;;;;4936574;28;20452;-78
2023/05/02 02:53:50;;;;;;;17.10;16.40;;;10.80;1.00;;;;;;4935133;28;20466;-78
2023/05/02 02:56:27;;;;;;;16.80;16.10;;;10.80;99.90;;;;;;4937210;28;20460;-79
2023/05/02 02:59:00;;;;;;;16.70;16.00;;;10.80;99.90;;;;;;4935734;28;20534;-78
2023/05/02 03:01:32;;;;;;;16.13;15.53;;;10.80;99.90;;;;;;4930911;28;20474;-76
2023/05/02 03:04:03;;;;;;;16.90;16.20;;;10.80;1.00;;;;;;4937255;28;21185;-79
2023/05/02 03:06:31;;;;;;;19.23;18.27;;;10.80;99.90;;;;;;4937138;28;20469;-79
2023/05/02 03:09:00;;;;;;;18.13;17.33;;;10.70;99.90;;;;;;4937647;28;20465;-79
2023/05/02 03:11:28;;;;;;;17.83;17.03;;;10.70;99.90;;;;;;4936986;28;20462;-78
2023/05/02 03:13:56;;;;;;;18.23;17.20;;;10.80;1.00;;;;;;4936978;28;20461;-79
2023/05/02 03:16:41;;;;;;;17.13;16.30;;;10.80;99.90;;;;;;4932651;28;20954;-78
2023/05/02 03:19:09;;;;;;;16.97;16.27;;;10.80;1.00;;;;;;4936889;28;20495;-78
2023/05/02 03:21:37;;;;;;;16.77;16.07;;;10.80;99.90;;;;;;4937905;28;20458;-78
2023/05/02 03:24:06;;;;;;;18.03;17.03;;;10.80;40.10;;;;;;4939231;28;21042;-79
2023/05/02 03:26:34;;;;;;;17.20;16.50;;;10.80;99.90;;;;;;4931562;28;20454;-78
2023/05/02 03:29:02;;;;;;;16.23;15.63;;;10.80;99.90;;;;;;4940866;28;20477;-77
2023/05/02 03:31:30;;;;;;;17.03;16.23;;;10.80;99.90;;;;;;4942978;28;20844;-78
2023/05/02 03:34:00;;;;;;;16.43;15.73;;;10.80;1.00;;;;;;4938210;28;20474;-79
2023/05/02 03:36:28;;;;;;;18.30;17.50;;;10.90;1.00;;;;;;4942718;28;20497;-79
2023/05/02 03:38:56;;;;;;;17.60;16.80;;;10.90;1.00;;;;;;4940247;28;20482;-79
2023/05/02 03:41:24;;;;;;;17.83;17.03;;;10.80;99.90;;;;;;4936495;28;20464;-78
2023/05/02 03:43:52;;;;;;;18.03;17.23;;;10.80;1.00;;;;;;4938942;28;20466;-78
2023/05/02 03:46:21;;;;;;;17.23;16.53;;;10.80;23.20;;;;;;4933803;28;20482;-79
2023/05/02 03:48:49;;;;;;;17.17;16.37;;;10.80;1.00;;;;;;4934390;28;20559;-79
2023/05/02 03:51:19;;;;;;;17.30;16.60;;;10.90;99.90;;;;;;4933839;28;20471;-79
2023/05/02 03:53:47;;;;;;;17.90;17.10;;;10.90;60.60;;;;;;4938478;28;21071;-78
2023/05/02 03:56:18;;;;;;;19.03;17.80;;;10.80;99.90;;;;;;4926855;28;20458;-78
2023/05/02 03:58:48;;;;;;;18.63;17.80;;;10.80;1.00;;;;;;4931024;28;22272;-78
2023/05/02 04:01:16;;;;;;;18.50;17.70;;;10.90;99.90;;;;;;4931029;28;20471;-79
2023/05/02 04:03:44;;;;;;;19.67;18.67;;;10.90;1.00;;;;;;4932370;28;20457;-78
2023/05/02 04:06:12;;;;;;;19.27;18.30;;;10.90;1.00;;;;;;4935763;28;20487;-77
2023/05/02 04:08:42;;;;;;;19.27;18.07;;;11.00;1.00;;;;;;4936589;28;20559;-78
2023/05/02 04:11:10;;;;;;;19.70;18.80;;;10.90;99.90;;;;;;4934551;28;20501;-76
2023/05/02 04:13:38;;;;;;;20.50;19.60;;;10.90;99.90;;;;;;4935114;28;20473;-77
2023/05/02 04:16:06;;;;;;;19.77;18.77;;;10.90;1.00;;;;;;4933237;28;20489;-78
2023/05/02 04:18:34;;;;;;;20.57;19.57;;;11.00;99.90;;;;;;4935116;28;20449;-79
2023/05/02 04:21:03;;;;;;;19.23;18.40;;;10.90;99.90;;;;;;4936458;28;20461;-78
2023/05/02 04:23:31;;;;;;;19.83;18.93;;;10.90;99.90;;;;;;4933553;28;20460;-77
2023/05/02 04:26:00;;;;;;;20.33;19.53;;;10.90;1.00;;;;;;4933377;28;20939;-78
2023/05/02 04:28:28;;;;;;;19.43;18.43;;;11.00;99.90;;;;;;4938368;28;20563;-78
2023/05/02 04:30:57;;;;;;;20.33;19.33;;;11.00;99.90;;;;;;4939935;28;20512;-78
2023/05/02 04:33:25;;;;;;;19.17;18.37;;;11.00;99.90;;;;;;4936731;28;21053;-78
2023/05/02 04:35:53;;;;;;;19.83;19.03;;;11.10;55.40;;;;;;4937261;29;20463;-79
2023/05/02 04:38:22;;;;;;;20.23;19.23;;;11.10;45.60;;;;;;4939915;28;20487;-78
2023/05/02 04:40:51;;;;;;;19.97;19.00;;;11.10;99.90;;;;;;4938599;28;20486;-80
2023/05/02 04:43:20;;;;;;;19.57;18.77;;;11.10;99.90;;;;;;4935174;28;21797;-79
2023/05/02 04:45:51;;;;;;;20.70;19.77;;;11.20;99.90;;;;;;4936970;28;20470;-82
2023/05/02 04:48:20;;;;;;;21.80;20.70;;;11.20;99.90;;;;;;4940050;28;20495;-79
2023/05/02 04:50:49;;;;;;;23.43;22.03;;;11.20;1.00;;;;;;4932768;28;20207;-77
2023/05/02 04:53:17;;;;;;;21.10;20.20;;;11.30;1.00;;;;;;4933826;29;20458;-79
2023/05/02 04:55:45;;;;;;;19.60;18.60;;;11.30;99.90;;;;;;4933812;28;20453;-77
2023/05/02 04:58:14;;;;;;;19.93;19.13;;;11.30;99.90;;;;;;4934987;28;20460;-79
2023/05/02 05:00:44;;;;;;;19.50;18.70;;;11.30;1.00;;;;;;4930356;28;20475;-79
2023/05/02 05:03:12;;;;;;;20.60;19.50;;;11.40;99.90;;;;;;4940951;28;20465;-80
2023/05/02 05:05:40;;;;;;;20.40;19.50;;;11.50;99.90;;;;;;4939280;28;20486;-80
2023/05/02 05:08:08;;;;;;;21.00;20.10;;;11.50;99.90;;;;;;4940563;28;20480;-79
2023/05/02 05:10:37;;;;;;;20.30;19.40;;;11.50;99.90;;;;;;4933688;28;20493;-80
2023/05/02 05:13:05;;;;;;;20.87;19.87;;;11.50;99.90;;;;;;4938260;28;20503;-80
2023/05/02 05:15:33;;;;;;;21.43;20.47;;;11.50;96.70;;;;;;4937539;28;20901;-80
2023/05/02 05:18:02;;;;;;;20.93;19.93;;;11.50;99.90;;;;;;4937991;28;20472;-80
2023/05/02 05:20:30;;;;;;;23.00;21.80;;;11.50;1.00;;;;;;4939316;28;20542;-80
2023/05/02 05:22:59;;;;;;;23.10;21.90;;;11.50;99.90;;;;;;4927664;28;20199;-82
2023/05/02 05:25:27;;;;;;;22.07;20.97;;;11.60;1.00;;;;;;4937658;28;20470;-82
2023/05/02 05:27:55;;;;;;;22.00;20.90;;;11.70;1.00;;;;;;4938174;28;20565;-81
2023/05/02 05:30:24;;;;;;;21.75;20.75;;;11.70;99.90;;;;;;4937065;28;20914;-79
2023/05/02 05:32:52;;;;;;;21.63;20.63;;;11.70;1.00;;;;;;4931996;28;20459;-80
2023/05/02 05:35:21;;;;;;;21.90;20.90;;;11.70;1.00;;;;;;4929966;28;20411;-78
2023/05/02 05:37:50;;;;;;;21.17;20.07;;;11.80;1.00;;;;;;4935431;28;21034;-80
2023/05/02 05:40:18;;;;;;;23.33;21.87;;;11.80;99.90;;;;;;4937325;28;20919;-79
2023/05/02 05:42:46;;;;;;;23.30;21.57;;;11.80;99.90;;;;;;4938982;28;20471;-80
2023/05/02 05:45:16;;;;;;;21.47;20.30;;;11.80;30.00;;;;;;4928395;28;20472;-81
2023/05/02 05:47:44;;;;;;;22.20;20.90;;;11.90;92.80;;;;;;4941152;28;20486;-81
2023/05/02 05:50:12;;;;;;;21.40;20.30;;;11.90;41.80;;;;;;4940488;28;20486;-79
2023/05/02 05:52:42;;;;;;;21.50;20.40;;;11.80;1.00;;;;;;4935749;28;20459;-79
2023/05/02 05:55:10;;;;;;;22.27;21.17;;;11.80;99.90;;;;;;4933198;28;20463;-82
2023/05/02 05:57:38;;;;;;;21.47;20.47;;;11.80;99.90;;;;;;4934935;28;21494;-81
2023/05/02 06:00:11;;;;;;;21.40;20.40;;;11.90;1.00;;;;;;4934453;28;20505;-80
2023/05/02 06:02:39;;;;;;;22.00;20.90;;;12.00;1.00;;;;;;4937295;28;20461;-80
2023/05/02 06:05:07;;;;;;;22.37;21.17;;;12.00;99.90;;;;;;4938133;28;20467;-78
2023/05/02 06:07:36;;;;;;;22.67;21.50;;;12.00;1.00;;;;;;4936281;28;20462;-80
2023/05/02 06:10:08;;;;;;;22.30;21.30;;;12.10;99.90;;;;;;4935776;28;21058;-80
2023/05/02 06:12:36;;;;;;;23.20;22.00;;;12.10;1.00;;;;;;4937424;28;20458;-80
2023/05/02 06:15:05;;;;;;;23.43;22.10;;;12.10;1.00;;;;;;4938395;28;20553;-80
2023/05/02 06:17:33;;;;;;;23.37;22.07;;;12.20;1.00;;;;;;4939271;28;20544;-80
2023/05/02 06:20:01;;;;;;;22.60;21.50;;;12.20;1.00;;;;;;4938136;28;20517;-80
2023/05/02 06:22:29;;;;;;;23.40;22.10;;;12.20;1.00;;;;;;4938025;28;20458;-80
2023/05/02 06:24:58;;;;;;;22.97;21.67;;;12.20;1.00;;;;;;4940052;28;20893;-81
2023/05/02 06:27:27;;;;;;;24.13;22.77;;;12.20;59.00;;;;;;4940683;28;20466;-81
2023/05/02 06:29:55;;;;;;;23.17;21.80;;;12.30;99.90;;;;;;4942552;28;20478;-80
2023/05/02 06:32:23;;;;;;;24.33;23.07;;;12.30;1.00;;;;;;4940169;28;20459;-80
2023/05/02 06:34:52;;;;;;;23.80;22.30;;;12.30;1.00;;;;;;4939029;28;20458;-81
2023/05/02 06:37:20;;;;;;;24.83;23.20;;;12.30;99.90;;;;;;4932403;28;22298;-81
2023/05/02 06:39:48;;;;;;;23.47;22.27;;;12.30;19.50;;;;;;4934125;28;21079;-81
2023/05/02 06:42:16;;;;;;;26.10;24.30;;;12.30;99.90;;;;;;4938051;28;20593;-81
2023/05/02 06:44:46;;;;;;;25.00;23.53;;;12.40;30.00;;;;;;4937655;28;20984;-81
2023/05/02 06:47:14;;;;;;;25.13;23.23;;;12.40;1.00;;;;;;4936232;28;20507;-81
2023/05/02 06:49:42;;;;;;;25.00;23.67;;;12.40;99.90;;;;;;4937024;28;20568;-80
2023/05/02 06:52:11;;;;;;;27.33;25.73;;;12.50;99.90;;;;;;4937446;28;20469;-81
2023/05/02 06:54:41;;;;;;;26.90;25.20;;;12.50;99.90;;;;;;4940325;28;20474;-81
2023/05/02 06:57:09;;;;;;;25.83;24.23;;;12.50;99.90;;;;;;4940191;28;20446;-81
2023/05/02 06:59:38;;;;;;;28.27;26.50;;;12.50;99.90;;;;;;4943964;28;20482;-81
2023/05/02 07:02:10;;;;;;;26.50;24.87;;;12.60;99.90;;;;;;4938686;28;20530;-81
2023/05/02 07:04:38;;;;;;;27.00;25.30;;;12.60;1.00;;;;;;4934198;28;20466;-80
2023/05/02 07:07:07;;;;;;;28.07;26.27;;;12.60;1.00;;;;;;4939443;29;20463;-80
2023/05/02 07:09:35;;;;;;;27.77;26.00;;;12.60;1.00;;;;;;4936885;28;20486;-82
2023/05/02 07:12:03;;;;;;;28.17;26.40;;;12.60;1.00;;;;;;4934596;28;20868;-81
2023/05/02 07:14:34;;;;;;;28.20;26.40;;;12.60;37.90;;;;;;4939489;28;20468;-82
2023/05/02 07:17:02;;;;;;;30.50;28.27;;;12.60;99.90;;;;;;4939707;28;20828;-82
2023/05/02 07:19:32;;;;;;;27.57;25.67;;;12.60;88.60;;;;;;4940433;28;20477;-81
2023/05/02 07:22:03;;;;;;;27.73;26.00;;;12.70;99.90;;;;;;4938309;28;20862;-81
2023/05/02 07:24:31;;;;;;;28.23;26.50;;;12.70;99.90;;;;;;4936759;28;20475;-82
2023/05/02 07:27:00;;;;;;;28.70;26.80;;;12.70;1.00;;;;;;4937340;28;20659;-82
2023/05/02 07:29:28;;;;;;;32.27;30.03;;;12.70;1.00;;;;;;4928737;28;20486;-81
2023/05/02 07:31:57;;;;;;;28.37;26.60;;;12.80;99.90;;;;;;4940823;28;20457;-80
2023/05/02 07:34:25;;;;;;;29.93;27.37;;;12.80;44.00;;;;;;4948659;28;20530;-81
2023/05/02 07:36:55;;;;;;;30.30;28.13;;;12.90;1.00;;;;;;4945267;28;20451;-80
2023/05/02 07:39:25;;;;;;;30.87;28.57;;;12.90;1.00;;;;;;4919129;28;1117361;-80
2023/05/02 07:41:53;;;;;;;31.17;29.00;;;13.00;1.00;;;;;;4950289;28;20226;-81
2023/05/02 07:44:23;;;;;;;32.00;29.60;;;13.10;1.00;;;;;;4943697;28;21003;-80
2023/05/02 07:46:52;;;;;;;32.30;30.00;;;13.10;99.90;;;;;;4947498;28;20486;-80
2023/05/02 07:49:20;;;;;;;32.30;29.77;;;13.20;1.00;;;;;;4950266;28;20498;-80
2023/05/02 07:51:48;;;;;;;34.50;32.00;;;13.20;1.00;;;;;;4950415;28;20470;-80
2023/05/02 07:54:18;;;;;;;34.03;31.40;;;13.30;99.90;;;;;;4946095;28;20968;-81
2023/05/02 07:56:47;;;;;;;34.90;32.33;;;13.30;99.30;;;;;;4947499;28;20469;-81
2023/05/02 07:59:16;;;;;;;34.93;32.33;;;13.30;1.00;;;;;;4948154;28;20494;-81
2023/05/02 08:01:44;;;;;;;34.50;31.90;;;13.30;1.00;;;;;;4938066;28;20482;-81
2023/05/02 08:04:12;;;;;;;37.67;34.77;;;13.40;1.00;;;;;;4947575;28;20640;-80
2023/05/02 08:06:41;;;;;;;37.70;34.30;;;13.50;99.90;;;;;;4946474;28;21001;-81
2023/05/02 08:09:09;;;;;;;38.37;35.37;;;13.50;99.90;;;;;;4944394;28;20484;-81
2023/05/02 08:11:39;;;;;;;38.30;35.33;;;13.40;1.00;;;;;;4943882;28;21304;-81
2023/05/02 08:14:07;;;;;;;39.63;36.17;;;13.50;99.90;;;;;;4945143;28;20483;-80
2023/05/02 08:16:35;;;;;;;39.37;36.13;;;13.60;1.00;;;;;;4938036;28;20476;-81
2023/05/02 08:19:04;;;;;;;41.93;38.17;;;13.60;99.90;;;;;;4934263;28;20543;-81
2023/05/02 08:21:32;;;;;;;41.17;37.67;;;13.70;99.90;;;;;;4937780;28;20765;-80
2023/05/02 08:24:00;;;;;;;41.07;37.67;;;13.70;53.00;;;;;;4938762;28;20464;-80
2023/05/02 08:26:28;;;;;;;41.17;37.87;;;13.70;1.00;;;;;;4936246;28;20989;-81
2023/05/02 08:28:58;;;;;;;41.53;38.10;;;13.70;99.90;;;;;;4938546;28;20570;-81
2023/05/02 08:31:26;;;;;;;44.83;41.03;;;13.80;99.90;;;;;;4937099;28;20571;-81
2023/05/02 08:33:54;;;;;;;43.73;39.83;;;13.80;27.70;;;;;;4935635;28;20892;-80
2023/05/02 08:36:23;;;;;;;42.20;38.53;;;14.00;99.90;;;;;;4931665;28;20547;-80
2023/05/02 08:38:51;;;;;;;43.37;39.70;;;14.00;99.90;;;;;;4938770;28;20500;-79
2023/05/02 08:41:19;;;;;;;41.67;38.57;;;14.00;99.90;;;;;;4941447;28;20480;-80
2023/05/02 08:43:48;;;;;;;43.73;40.17;;;14.00;99.90;;;;;;4945205;28;20457;-80
2023/05/02 08:46:18;;;;;;;42.33;38.63;;;14.00;99.90;;;;;;4943325;28;20532;-81
2023/05/02 08:48:47;;;;;;;43.10;39.40;;;14.10;99.90;;;;;;4946812;28;20485;-81
2023/05/02 08:51:18;;;;;;;40.87;37.30;;;14.20;99.90;;;;;;4947352;28;20452;-81
2023/05/02 08:53:53;;;;;;;42.30;38.90;;;14.30;1.00;;;;;;4949088;28;20491;-81
2023/05/02 08:56:21;;;;;;;41.73;38.13;;;14.30;1.00;;;;;;4945023;28;20463;-81
2023/05/02 08:58:49;;;;;;;43.20;39.67;;;14.40;99.90;;;;;;4946067;28;20479;-80
2023/05/02 09:01:22;;;;;;;43.93;40.33;;;14.40;99.90;;;;;;4947492;28;20458;-81
2023/05/02 09:03:51;;;;;;;41.97;38.77;;;14.50;99.90;;;;;;4946342;28;20462;-81
2023/05/02 09:06:21;;;;;;;41.40;37.77;;;14.60;99.90;;;;;;4937728;28;20449;-81
2023/05/02 09:08:52;;;;;;;39.10;35.90;;;14.70;10.80;;;;;;4943175;28;20524;-80
2023/05/02 09:11:21;;;;;;;39.43;36.30;;;14.80;99.90;;;;;;4946242;28;20470;-81
2023/05/02 09:13:52;;;;;;;38.97;35.90;;;14.90;99.90;;;;;;4948811;28;20492;-80
2023/05/02 09:16:22;;;;;;;52.87;46.67;;;15.00;99.90;;;;;;4945253;28;20523;-80
2023/05/02 09:18:52;;;;;;;70.07;46.17;;;15.10;1.00;;;;;;4945405;29;20491;-81
2023/05/02 09:21:22;;;;;;;38.47;35.23;;;15.20;1.00;;;;;;4943665;28;20466;-81
2023/05/02 09:23:52;;;;;;;36.53;33.60;;;15.30;1.00;;;;;;4936763;28;20488;-80
2023/05/02 09:26:21;;;;;;;37.70;34.90;;;15.30;99.90;;;;;;4944851;28;21017;-80
2023/05/02 09:28:54;;;;;;;37.97;34.83;;;15.30;99.90;;;;;;4938777;28;20513;-80
2023/05/02 09:31:26;;;;;;;39.27;36.30;;;15.30;1.00;;;;;;4940212;28;20460;-81
2023/05/02 09:34:16;;;;;;;40.80;37.30;;;15.30;99.90;;;;;;4944711;28;20510;-78
2023/05/02 09:36:49;;;;;;;38.33;35.30;;;15.30;99.90;;;;;;4939037;28;20474;-81
2023/05/02 09:39:18;;;;;;;40.07;36.77;;;15.20;99.90;;;;;;4941735;28;20500;-81
2023/05/02 09:41:50;;;;;;;40.93;37.30;;;15.20;99.90;;;;;;4938784;28;21043;-82
2023/05/02 09:44:20;;;;;;;40.47;37.27;;;15.20;1.00;;;;;;4941175;28;20541;-81
2023/05/02 09:46:51;;;;;;;42.77;39.27;;;15.30;99.90;;;;;;4942647;28;20560;-80
2023/05/02 09:49:38;;;;;;;40.50;36.87;;;15.40;1.00;;;;;;4944087;28;20506;-80
2023/05/02 09:52:11;;;;;;;39.90;36.70;;;15.40;1.00;;;;;;4939229;29;20486;-80
2023/05/02 09:54:39;;;;;;;38.97;35.90;;;15.50;99.90;;;;;;4936587;28;20471;-81
2023/05/02 09:57:07;;;;;;;38.97;36.00;;;15.60;99.90;;;;;;4937977;29;20839;-80
2023/05/02 09:59:35;;;;;;;38.63;35.43;;;15.60;99.90;;;;;;4938263;28;20474;-80
2023/05/02 10:02:09;;;;;;;40.10;37.00;;;15.60;99.90;;;;;;4937764;28;20861;-80
2023/05/02 10:04:39;;;;;;;37.50;34.73;;;15.80;1.00;;;;;;4940041;28;20466;-85
2023/05/02 10:07:09;;;;;;;38.13;35.03;;;15.90;99.90;;;;;;4940792;28;20467;-82
2023/05/02 10:09:42;;;;;;;35.17;32.63;;;16.00;99.90;;;;;;4940942;28;20471;-83
2023/05/02 10:12:15;;;;;;;35.50;32.80;;;16.20;99.90;;;;;;4942900;28;20527;-83
2023/05/02 10:14:49;;;;;;;35.53;32.83;;;16.30;99.90;;;;;;4944083;28;21000;-81
2023/05/02 10:17:23;;;;;;;36.83;33.83;;;16.40;99.90;;;;;;4944505;28;20487;-84
2023/05/02 10:19:56;;;;;;;35.40;32.70;;;16.40;99.90;;;;;;4941590;29;20484;-83
2023/05/02 10:22:26;;;;;;;36.20;33.00;;;16.50;95.40;;;;;;4941679;28;20484;-84
2023/05/02 10:24:57;;;;;;;36.70;33.63;;;16.50;24.10;;;;;;4944640;28;20463;-84
2023/05/02 10:27:26;;;;;;;32.40;30.00;;;16.50;26.70;;;;;;4943196;28;20693;-83
2023/05/02 10:29:55;;;;;;;33.63;31.17;;;16.60;99.90;;;;;;4941335;28;20897;-84
2023/05/02 10:32:28;;;;;;;32.27;30.00;;;16.50;1.00;;;;;;4940761;28;20541;-84
2023/05/02 10:34:57;;;;;;;31.73;29.40;;;16.60;1.00;;;;;;4943254;28;20936;-84
2023/05/02 10:37:27;;;;;;;30.43;28.53;;;16.70;1.00;;;;;;4939902;29;20494;-84
2023/05/02 10:39:56;;;;;;;32.00;29.53;;;16.70;1.00;;;;;;4944297;28;20497;-84
2023/05/02 10:42:24;;;;;;;31.10;29.10;;;16.70;1.00;;;;;;4941975;28;20997;-83
2023/05/02 10:44:52;;;;;;;29.90;27.90;;;16.70;1.00;;;;;;4941142;28;20467;-84
2023/05/02 10:47:22;;;;;;;30.23;28.07;;;16.70;1.00;;;;;;4942428;28;20463;-85
2023/05/02 10:49:53;;;;;;;29.53;27.67;;;16.70;1.00;;;;;;4942077;28;20484;-84
2023/05/02 10:52:29;;;;;;;29.53;27.50;;;16.70;1.00;;;;;;4942136;28;20944;-85
2023/05/02 10:55:18;;;;;;;29.40;27.50;;;16.70;1.00;;;;;;4957909;28;20995;-81
2023/05/02 10:58:21;;;;;;;29.23;27.13;;;16.70;1.00;;;;;;4944137;28;20474;-80
2023/05/02 11:00:49;;;;;;;29.40;27.10;;;16.70;99.90;;;;;;4940668;28;20565;-81
2023/05/02 11:03:51;;;;;;;30.33;28.33;;;16.70;1.00;;;;;;4946185;28;20481;-83
2023/05/02 11:06:21;;;;;;;29.33;27.40;;;16.70;99.90;;;;;;4949034;28;20591;-81
2023/05/02 11:08:50;;;;;;;28.93;27.03;;;16.60;99.90;;;;;;4947053;28;20478;-82
2023/05/02 11:11:41;;;;;;;28.37;26.57;;;16.50;99.90;;;;;;4944565;28;20521;-83
2023/05/02 11:14:10;;;;;;;29.33;27.50;;;16.40;99.90;;;;;;4943231;28;20458;-82
2023/05/02 11:17:08;;;;;;;29.17;27.00;;;16.40;99.90;;;;;;4941696;28;21132;-83
2023/05/02 11:20:29;;;;;;;31.13;28.50;;;16.40;99.90;;;;;;4946768;28;20469;-84
2023/05/02 11:23:21;;;;;;;28.50;26.60;;;16.60;99.90;;;;;;4941098;28;20489;-83
2023/05/02 11:25:52;;;;;;;30.17;28.17;;;16.70;99.90;;;;;;4944089;28;20969;-82
2023/05/02 11:28:46;;;;;;;27.30;25.60;;;16.80;99.90;;;;;;4943445;28;20465;-82
2023/05/02 11:32:03;;;;;;;30.77;28.57;;;16.90;99.90;;;;;;4939344;28;20518;-84
2023/05/02 11:34:45;;;;;;;30.70;28.43;;;16.90;99.90;;;;;;4946211;28;20451;-83
2023/05/02 11:37:15;;;;;;;32.10;29.80;;;17.00;99.90;;;;;;4941382;28;20462;-81
2023/05/02 11:39:46;;;;;;;30.50;28.10;;;17.00;99.90;;;;;;4944236;28;20475;-83
2023/05/02 11:42:31;;;;;;;30.10;28.20;;;17.00;99.90;;;;;;4941011;28;20534;-82
2023/05/02 11:45:01;;;;;;;30.20;28.20;;;17.10;99.90;;;;;;4942979;28;20454;-84
2023/05/02 11:47:33;;;;;;;29.40;27.50;;;17.10;99.90;;;;;;4941456;28;20819;-83
2023/05/02 11:50:04;;;;;;;28.40;26.60;;;17.10;99.90;;;;;;4943747;28;20463;-81
2023/05/02 11:52:38;;;;;;;29.73;27.73;;;17.20;99.90;;;;;;4944760;28;20992;-81
2023/05/02 11:55:10;;;;;;;29.10;27.30;;;17.20;99.90;;;;;;4941269;28;20466;-82
2023/05/02 11:57:41;;;;;;;28.40;26.70;;;17.30;99.90;;;;;;4944076;28;20465;-82
2023/05/02 12:00:11;;;;;;;29.13;27.17;;;17.30;99.90;;;;;;4940651;28;20481;-81
2023/05/02 12:02:41;;;;;;;29.17;27.33;;;17.30;99.90;;;;;;4944347;28;20456;-82
2023/05/02 12:05:11;;;;;;;30.30;28.30;;;17.30;99.90;;;;;;4945234;28;20459;-81
2023/05/02 12:07:41;;;;;;;29.60;27.70;;;17.20;99.90;;;;;;4935371;28;20472;-82
2023/05/02 12:10:13;;;;;;;29.73;27.77;;;17.20;99.90;;;;;;4944391;28;20486;-83
2023/05/02 12:12:44;;;;;;;28.83;27.03;;;17.20;99.90;;;;;;4945532;28;20449;-82
2023/05/02 12:15:13;;;;;;;29.03;27.10;;;17.20;99.90;;;;;;4946483;28;20467;-82
2023/05/02 12:17:43;;;;;;;28.00;26.20;;;17.20;99.90;;;;;;4943335;28;20921;-82
2023/05/02 12:20:12;;;;;;;30.80;28.70;;;17.10;99.90;;;;;;4944175;28;20533;-82
2023/05/02 12:22:41;;;;;;;31.47;29.27;;;17.20;99.90;;;;;;4945170;29;21020;-83
2023/05/02 12:25:11;;;;;;;32.00;29.50;;;17.30;99.90;;;;;;4942317;28;20485;-82
2023/05/02 12:27:39;;;;;;;31.90;29.73;;;17.40;99.90;;;;;;4944877;28;20523;-81
2023/05/02 12:30:08;;;;;;;33.80;31.30;;;17.50;99.90;;;;;;4945850;28;21225;-81
2023/05/02 12:32:41;;;;;;;32.40;30.23;;;17.50;99.90;;;;;;4941012;28;20491;-81
2023/05/02 12:35:21;;;;;;;32.17;29.97;;;17.50;99.90;;;;;;4942877;28;20461;-82
2023/05/02 12:37:49;;;;;;;33.30;30.73;;;17.50;99.90;;;;;;4943275;28;20463;-81
2023/05/02 12:40:19;;;;;;;32.77;30.43;;;17.60;99.90;;;;;;4940375;28;20483;-81
2023/05/02 12:43:02;;;;;;;34.13;31.53;;;17.60;99.90;;;;;;4943895;29;20455;-81
2023/05/02 12:45:33;;;;;;;33.50;30.87;;;17.60;99.90;;;;;;4943930;28;20446;-79
2023/05/02 12:48:01;;;;;;;33.20;30.80;;;17.70;99.90;;;;;;4949592;28;20456;-81
2023/05/02 12:50:37;;;;;;;35.03;32.40;;;17.70;99.90;;;;;;4951249;28;20523;-80